createdAt,value
2023-01-08T00:01:11.156Z,100338.94
2023-01-08T00:03:40.289Z,100342.97
2023-01-08T00:06:12.629Z,100304.94
2023-01-08T00:08:41.022Z,100308.41
2023-01-08T00:11:09.574Z,100326.28
2023-01-08T00:13:37.915Z,100304.53
2023-01-08T00:16:09.059Z,100344.69
2023-01-08T00:18:37.370Z,100344.69
2023-01-08T00:21:05.975Z,100338.25
2023-01-08T00:23:34.763Z,100351.50
2023-01-08T00:26:03.415Z,100344.56
2023-01-08T00:28:31.397Z,100342.44
2023-01-08T00:31:00.278Z,100340.41
2023-01-08T00:33:30.463Z,100341.22
2023-01-08T00:35:58.485Z,100322.53
2023-01-08T00:38:27.569Z,100345.19
2023-01-08T00:40:56.065Z,100350.97
2023-01-08T00:43:24.135Z,100346.88
2023-01-08T00:45:54.135Z,100346.28
2023-01-08T00:48:23.473Z,100336.81
2023-01-08T00:50:54.224Z,100344.34
2023-01-08T00:53:23.065Z,100302.16
2023-01-08T00:55:51.348Z,100350.56
2023-01-08T00:58:19.250Z,100361.41
2023-01-08T01:00:47.304Z,100352.22
2023-01-08T01:03:15.264Z,100348.00
2023-01-08T01:05:43.298Z,100333.03
2023-01-08T01:08:12.672Z,100320.44
2023-01-08T01:10:41.163Z,100345.94
2023-01-08T01:13:09.219Z,100342.75
2023-01-08T01:15:37.217Z,100342.50
2023-01-08T01:18:05.391Z,100336.56
2023-01-08T01:20:33.317Z,100338.47
2023-01-08T01:23:01.434Z,100331.88
2023-01-08T01:25:30.751Z,100328.16
2023-01-08T01:27:59.200Z,100311.66
2023-01-08T01:30:27.179Z,100332.34
2023-01-08T01:32:55.221Z,100327.06
2023-01-08T01:35:23.306Z,100327.34
2023-01-08T01:37:51.329Z,100295.59
2023-01-08T01:40:19.410Z,100324.69
2023-01-08T01:42:48.806Z,100323.47
2023-01-08T01:45:21.238Z,100315.75
2023-01-08T01:47:52.513Z,100322.78
2023-01-08T01:50:24.152Z,100312.41
2023-01-08T01:52:59.026Z,100313.56
2023-01-08T01:55:27.510Z,100310.88
2023-01-08T01:58:04.586Z,100317.63
2023-01-08T02:00:33.921Z,100318.84
2023-01-08T02:03:02.279Z,100255.19
2023-01-08T02:05:38.617Z,100312.22
2023-01-08T02:08:12.426Z,100311.44
2023-01-08T02:10:45.641Z,100310.28
2023-01-08T02:13:20.566Z,100274.06
2023-01-08T02:15:57.621Z,100308.31
2023-01-08T02:18:31.863Z,100313.00
2023-01-08T02:21:06.083Z,100312.47
2023-01-08T02:23:43.841Z,100308.16
2023-01-08T02:26:20.254Z,100309.91
2023-01-08T02:28:53.690Z,100308.50
2023-01-08T02:31:24.176Z,100311.75
2023-01-08T02:33:52.218Z,100300.56
2023-01-08T02:36:47.421Z,100310.09
2023-01-08T02:39:29.524Z,100294.69
2023-01-08T02:42:12.810Z,100297.19
2023-01-08T02:44:54.987Z,100299.47
2023-01-08T02:47:30.205Z,100300.31
2023-01-08T02:50:11.450Z,100302.47
2023-01-08T02:52:47.536Z,100295.34
2023-01-08T02:55:17.669Z,100281.00
2023-01-08T02:57:48.195Z,100306.03
2023-01-08T03:00:17.175Z,100303.25
2023-01-08T03:02:45.887Z,100288.09
2023-01-08T03:05:21.325Z,100304.38
2023-01-08T03:07:50.017Z,100280.78
2023-01-08T03:10:20.308Z,100302.56
2023-01-08T03:12:54.736Z,100275.84
2023-01-08T03:15:28.869Z,100304.66
2023-01-08T03:18:01.753Z,100296.06
2023-01-08T03:20:32.181Z,100270.66
2023-01-08T03:23:04.496Z,100305.06
2023-01-08T03:25:32.721Z,100299.22
2023-01-08T03:28:06.776Z,100309.25
2023-01-08T03:30:36.377Z,100308.41
2023-01-08T03:33:07.119Z,100280.91
2023-01-08T03:35:37.693Z,100298.25
2023-01-08T03:38:12.982Z,100301.81
2023-01-08T03:40:45.321Z,100288.34
2023-01-08T03:43:14.889Z,100291.78
2023-01-08T03:45:50.434Z,100225.72
2023-01-08T03:48:21.673Z,100287.56
2023-01-08T03:50:49.781Z,100295.16
2023-01-08T03:53:18.015Z,100291.59
2023-01-08T03:55:45.980Z,100291.41
2023-01-08T03:58:15.293Z,100279.50
2023-01-08T04:00:43.261Z,100292.56
2023-01-08T04:03:11.223Z,100297.88
2023-01-08T04:05:39.446Z,100293.72
2023-01-08T04:08:07.432Z,100292.09
2023-01-08T04:10:35.518Z,100300.13
2023-01-08T04:13:03.614Z,100187.97
2023-01-08T04:15:34.388Z,100302.03
2023-01-08T04:18:02.423Z,100293.25
2023-01-08T04:20:30.526Z,100306.78
2023-01-08T04:22:58.619Z,100302.25
2023-01-08T04:25:26.605Z,100303.16
2023-01-08T04:27:54.558Z,100309.53
2023-01-08T04:30:22.752Z,100312.09
2023-01-08T04:32:52.540Z,100296.34
2023-01-08T04:35:20.552Z,100296.91
2023-01-08T04:37:48.774Z,100310.59
2023-01-08T04:40:16.956Z,100313.97
2023-01-08T04:42:45.133Z,100314.53
2023-01-08T04:45:13.299Z,100296.44
2023-01-08T04:47:41.362Z,100317.16
2023-01-08T04:50:11.423Z,100315.34
2023-01-08T04:52:39.402Z,100322.28
2023-01-08T04:55:07.907Z,100328.53
2023-01-08T04:57:35.942Z,100290.47
2023-01-08T05:00:03.979Z,100330.06
2023-01-08T05:02:32.127Z,100291.19
2023-01-08T05:05:00.167Z,100330.47
2023-01-08T05:07:29.493Z,100287.84
2023-01-08T05:09:57.466Z,100286.31
2023-01-08T05:12:25.560Z,100335.34
2023-01-08T05:14:53.657Z,100337.25
2023-01-08T05:17:21.525Z,100336.31
2023-01-08T05:19:49.537Z,100338.16
2023-01-08T05:22:17.479Z,100337.44
2023-01-08T05:24:46.792Z,100208.94
2023-01-08T05:27:14.775Z,100342.56
2023-01-08T05:29:42.733Z,100341.34
2023-01-08T05:32:16.099Z,100337.34
2023-01-08T05:34:45.790Z,100343.00
2023-01-08T05:37:13.815Z,100341.78
2023-01-08T05:39:41.769Z,100297.22
2023-01-08T05:42:11.064Z,100323.81
2023-01-08T05:44:39.020Z,100296.63
2023-01-08T05:47:07.045Z,100324.84
2023-01-08T05:49:35.062Z,100273.03
2023-01-08T05:52:03.012Z,100286.75
2023-01-08T05:54:31.007Z,100347.47
2023-01-08T05:56:58.941Z,100347.81
2023-01-08T05:59:28.246Z,100352.13
2023-01-08T06:01:56.206Z,100359.00
2023-01-08T06:04:24.281Z,100354.03
2023-01-08T06:06:52.175Z,100352.41
2023-01-08T06:09:20.361Z,100351.53
2023-01-08T06:11:48.399Z,100351.63
2023-01-08T06:14:16.593Z,100357.25
2023-01-08T06:16:45.945Z,100353.69
2023-01-08T06:19:14.110Z,100356.25
2023-01-08T06:21:42.054Z,100349.69
2023-01-08T06:24:09.987Z,100359.66
2023-01-08T06:26:38.012Z,100354.81
2023-01-08T06:29:05.998Z,100358.13
2023-01-08T06:31:34.012Z,100368.69
2023-01-08T06:34:03.332Z,100367.91
2023-01-08T06:36:31.362Z,100371.38
2023-01-08T06:38:59.344Z,100346.66
2023-01-08T06:41:27.438Z,100364.25
2023-01-08T06:43:55.344Z,100370.09
2023-01-08T06:46:23.442Z,100375.25
2023-01-08T06:48:51.439Z,100381.19
2023-01-08T06:51:20.788Z,100380.25
2023-01-08T06:53:49.295Z,100385.00
2023-01-08T06:56:17.299Z,100388.72
2023-01-08T06:58:45.254Z,100386.44
2023-01-08T07:01:15.322Z,100394.78
2023-01-08T07:03:43.981Z,100387.09
2023-01-08T07:06:16.429Z,100378.03
2023-01-08T07:08:46.037Z,100392.47
2023-01-08T07:11:14.679Z,100394.19
2023-01-08T07:13:43.184Z,100395.09
2023-01-08T07:16:13.122Z,100397.63
2023-01-08T07:18:42.159Z,100389.09
2023-01-08T07:21:10.410Z,100401.69
2023-01-08T07:23:39.186Z,100410.19
2023-01-08T07:26:08.773Z,100402.41
2023-01-08T07:28:36.773Z,100408.06
2023-01-08T07:31:05.790Z,100392.09
2023-01-08T07:33:33.984Z,100387.63
2023-01-08T07:36:01.964Z,100413.16
2023-01-08T07:38:29.993Z,100413.69
2023-01-08T07:40:59.168Z,100410.13
2023-01-08T07:43:30.187Z,100420.16
2023-01-08T07:45:58.283Z,100414.00
2023-01-08T07:48:26.226Z,100409.19
2023-01-08T07:50:54.657Z,100409.03
2023-01-08T07:53:22.581Z,100411.78
2023-01-08T07:55:50.606Z,100420.34
2023-01-08T07:58:18.545Z,100420.69
2023-01-08T08:00:47.921Z,100398.59
2023-01-08T08:03:15.860Z,100416.66
2023-01-08T08:05:43.842Z,100416.91
2023-01-08T08:08:13.417Z,100406.47
2023-01-08T08:10:43.034Z,100407.91
2023-01-08T08:13:11.950Z,100414.69
2023-01-08T08:15:41.269Z,100410.69
2023-01-08T08:18:10.961Z,100415.81
2023-01-08T08:20:39.344Z,100404.31
2023-01-08T08:23:09.442Z,100402.81
2023-01-08T08:25:37.998Z,100405.50
2023-01-08T08:28:06.277Z,100409.91
2023-01-08T08:30:35.749Z,100403.63
2023-01-08T08:33:05.541Z,100405.03
2023-01-08T08:35:35.954Z,100410.56
2023-01-08T08:38:04.480Z,100398.19
2023-01-08T08:40:32.671Z,100407.06
2023-01-08T08:43:03.109Z,100402.97
2023-01-08T08:45:31.244Z,100400.69
2023-01-08T08:47:59.515Z,100411.69
2023-01-08T08:50:27.580Z,100409.59
2023-01-08T08:53:01.660Z,100409.31
2023-01-08T08:55:30.011Z,100398.41
2023-01-08T08:58:04.404Z,100399.03
2023-01-08T09:00:32.356Z,100404.69
2023-01-08T09:03:00.416Z,100401.09
2023-01-08T09:05:28.812Z,100396.75
2023-01-08T09:07:57.005Z,100400.09
2023-01-08T09:10:26.447Z,100399.22
2023-01-08T09:12:55.105Z,100399.81
2023-01-08T09:15:23.915Z,100390.56
2023-01-08T09:17:55.790Z,100389.19
2023-01-08T09:20:24.699Z,100390.19
2023-01-08T09:22:52.920Z,100390.66
2023-01-08T09:25:20.898Z,100377.63
2023-01-08T09:27:50.174Z,100383.66
2023-01-08T09:30:18.228Z,100377.72
2023-01-08T09:32:46.204Z,100382.09
2023-01-08T09:35:14.167Z,100376.97
2023-01-08T09:37:42.116Z,100367.31
2023-01-08T09:40:15.939Z,100363.34
2023-01-08T09:42:44.061Z,100365.63
2023-01-08T09:45:24.104Z,100355.88
2023-01-08T09:47:52.679Z,100355.13
2023-01-08T09:50:24.448Z,100353.44
2023-01-08T09:52:52.993Z,100345.59
2023-01-08T09:55:21.883Z,100338.34
2023-01-08T09:57:50.474Z,100340.56
2023-01-08T10:00:27.198Z,100337.94
2023-01-08T10:02:56.547Z,100338.31
2023-01-08T10:05:26.843Z,100327.59
2023-01-08T10:07:54.861Z,100325.13
2023-01-08T10:10:26.604Z,100317.31
2023-01-08T10:12:55.657Z,100314.31
2023-01-08T10:15:25.528Z,100315.59
2023-01-08T10:18:00.356Z,100311.34
2023-01-08T10:20:29.132Z,100298.25
2023-01-08T10:22:57.586Z,100305.69
2023-01-08T10:25:27.730Z,100298.78
2023-01-08T10:28:00.046Z,100296.91
2023-01-08T10:30:40.586Z,100290.22
2023-01-08T10:33:15.901Z,100285.66
2023-01-08T10:35:44.625Z,100284.47
2023-01-08T10:38:26.757Z,100279.78
2023-01-08T10:40:54.875Z,100275.53
2023-01-08T10:43:25.900Z,100266.34
2023-01-08T10:46:01.184Z,100265.53
2023-01-08T10:48:33.840Z,100267.50
2023-01-08T10:51:14.380Z,100251.50
2023-01-08T10:53:42.518Z,100256.38
2023-01-08T10:56:21.755Z,100250.97
2023-01-08T10:58:50.123Z,100247.78
2023-01-08T11:01:24.432Z,100253.03
2023-01-08T11:03:53.964Z,100245.34
2023-01-08T11:06:24.224Z,100245.09
2023-01-08T11:08:54.232Z,100209.53
2023-01-08T11:11:22.901Z,100236.03
2023-01-08T11:13:58.658Z,100219.41
2023-01-08T11:16:36.259Z,100229.63
2023-01-08T11:19:05.170Z,100233.84
2023-01-08T11:21:36.203Z,100234.19
2023-01-08T11:24:16.442Z,100227.16
2023-01-08T11:26:49.530Z,100222.78
2023-01-08T11:29:22.360Z,100216.00
2023-01-08T11:31:57.298Z,100214.13
2023-01-08T11:34:33.884Z,100203.34
2023-01-08T11:37:09.956Z,100212.25
2023-01-08T11:39:39.689Z,100205.13
2023-01-08T11:42:21.092Z,100209.19
2023-01-08T11:45:04.752Z,100204.41
2023-01-08T11:47:53.074Z,100197.59
2023-01-08T11:50:25.803Z,100196.63
2023-01-08T11:53:12.080Z,100192.06
2023-01-08T11:55:50.985Z,100197.72
2023-01-08T11:58:34.375Z,100195.00
2023-01-08T12:01:30.014Z,100191.56
2023-01-08T12:04:18.140Z,100186.09
2023-01-08T12:06:52.510Z,100182.34
2023-01-08T12:09:36.939Z,100182.84
2023-01-08T12:12:16.204Z,100179.06
2023-01-08T12:14:53.159Z,100177.69
2023-01-08T12:17:40.712Z,100172.84
2023-01-08T12:20:22.040Z,100165.78
2023-01-08T12:22:59.915Z,100176.31
2023-01-08T12:25:44.115Z,100170.44
2023-01-08T12:28:25.397Z,100181.97
2023-01-08T12:31:13.928Z,100175.94
2023-01-08T12:33:49.446Z,100172.44
2023-01-08T12:36:23.692Z,100171.84
2023-01-08T12:38:56.534Z,100170.84
2023-01-08T12:41:25.687Z,100172.94
2023-01-08T12:43:58.601Z,100158.47
2023-01-08T12:46:29.416Z,100179.03
2023-01-08T12:48:58.385Z,100155.59
2023-01-08T12:51:34.025Z,100175.34
2023-01-08T12:54:11.774Z,100162.13
2023-01-08T12:56:47.608Z,100170.50
2023-01-08T12:59:33.004Z,100172.47
2023-01-08T13:02:10.054Z,100161.78
2023-01-08T13:04:42.312Z,100172.09
2023-01-08T13:07:19.964Z,100166.28
2023-01-08T13:09:56.002Z,100170.22
2023-01-08T13:12:34.425Z,100168.66
2023-01-08T13:15:02.640Z,100167.06
2023-01-08T13:17:30.960Z,100165.59
2023-01-08T13:20:03.026Z,100163.78
2023-01-08T13:22:34.901Z,100165.44
2023-01-08T13:25:30.038Z,100172.88
2023-01-08T13:27:58.801Z,100168.84
2023-01-08T13:30:42.359Z,100160.66
2023-01-08T13:33:39.692Z,100162.50
2023-01-08T13:36:25.663Z,100162.81
2023-01-08T13:39:07.642Z,100162.56
2023-01-08T13:41:37.221Z,100172.06
2023-01-08T13:44:06.881Z,100169.09
2023-01-08T13:46:38.112Z,100165.47
2023-01-08T13:49:08.239Z,100164.03
2023-01-08T13:51:46.614Z,100156.41
2023-01-08T13:54:22.265Z,100161.66
2023-01-08T13:56:55.417Z,100163.50
2023-01-08T13:59:35.442Z,100152.28
2023-01-08T14:02:03.522Z,100162.09
2023-01-08T14:04:31.583Z,100171.91
2023-01-08T14:07:20.448Z,100162.50
2023-01-08T14:09:49.956Z,100168.16
2023-01-08T14:12:21.737Z,100166.13
2023-01-08T14:14:52.203Z,100168.63
2023-01-08T14:17:22.859Z,100160.69
2023-01-08T14:19:51.087Z,100156.91
2023-01-08T14:22:23.023Z,100163.50
2023-01-08T14:24:56.896Z,100167.81
2023-01-08T14:27:27.214Z,100164.34
2023-01-08T14:29:55.335Z,100158.38
2023-01-08T14:32:25.398Z,100159.75
2023-01-08T14:34:55.177Z,100161.34
2023-01-08T14:37:23.272Z,100163.31
2023-01-08T14:39:54.685Z,100161.34
2023-01-08T14:42:47.193Z,100157.44
2023-01-08T14:45:22.467Z,100152.56
2023-01-08T14:47:54.266Z,100162.59
2023-01-08T14:50:26.375Z,100160.63
2023-01-08T14:52:59.062Z,100165.91
2023-01-08T14:55:30.259Z,100156.00
2023-01-08T14:57:58.476Z,100158.72
2023-01-08T15:00:29.245Z,100146.75
2023-01-08T15:02:57.597Z,100160.78
2023-01-08T15:05:29.364Z,100159.63
2023-01-08T15:08:03.226Z,100131.22
2023-01-08T15:10:41.248Z,100149.00
2023-01-08T15:13:23.028Z,100158.41
2023-01-08T15:15:57.316Z,100157.53
2023-01-08T15:18:25.761Z,100156.72
2023-01-08T15:20:54.767Z,100161.53
2023-01-08T15:23:30.193Z,100162.88
2023-01-08T15:25:59.494Z,100151.34
2023-01-08T15:28:27.494Z,100165.84
2023-01-08T15:30:57.780Z,100169.06
2023-01-08T15:33:27.035Z,100160.31
2023-01-08T15:35:55.087Z,100158.09
2023-01-08T15:38:24.036Z,100161.63
2023-01-08T15:40:54.108Z,100162.78
2023-01-08T15:43:22.724Z,100160.38
2023-01-08T15:45:51.400Z,100152.81
2023-01-08T15:48:19.412Z,100156.28
2023-01-08T15:50:47.428Z,100154.03
2023-01-08T15:53:19.687Z,100154.22
2023-01-08T15:55:48.290Z,100150.16
2023-01-08T15:58:17.599Z,100148.69
2023-01-08T16:00:47.801Z,100146.53
2023-01-08T16:03:16.505Z,100148.72
2023-01-08T16:05:44.440Z,100155.06
2023-01-08T16:08:12.817Z,100159.53
2023-01-08T16:10:40.856Z,100154.13
2023-01-08T16:13:11.766Z,100160.66
2023-01-08T16:15:40.937Z,100160.66
2023-01-08T16:18:10.337Z,99694.91
2023-01-08T16:20:39.388Z,100153.78
2023-01-08T16:23:07.509Z,100162.63
2023-01-08T16:25:35.572Z,100165.66
2023-01-08T16:28:03.997Z,100160.09
2023-01-08T16:30:31.951Z,100168.84
2023-01-08T16:33:00.073Z,100162.03
2023-01-08T16:35:29.353Z,100158.03
2023-01-08T16:37:57.638Z,100158.03
2023-01-08T16:40:25.537Z,100161.47
2023-01-08T16:42:53.772Z,100167.91
2023-01-08T16:45:21.652Z,100163.75
2023-01-08T16:47:49.698Z,100175.66
2023-01-08T16:50:17.981Z,100171.00
2023-01-08T16:52:47.438Z,100167.25
2023-01-08T16:55:15.368Z,100174.22
2023-01-08T16:57:43.447Z,100180.63
2023-01-08T17:00:12.601Z,100177.44
2023-01-08T17:02:40.596Z,100167.72
2023-01-08T17:05:09.103Z,100135.28
2023-01-08T17:07:37.045Z,100177.38
2023-01-08T17:10:10.317Z,100195.78
2023-01-08T17:12:38.322Z,100161.75
2023-01-08T17:15:07.557Z,100154.34
2023-01-08T17:17:35.525Z,100194.19
2023-01-08T17:20:03.578Z,100189.91
2023-01-08T17:22:31.527Z,100201.50
2023-01-08T17:24:59.489Z,100148.97
2023-01-08T17:27:29.643Z,100189.56
2023-01-08T17:29:57.586Z,100174.94
2023-01-08T17:32:26.169Z,100191.66
2023-01-08T17:34:54.727Z,100201.91
2023-01-08T17:37:22.816Z,100167.91
2023-01-08T17:39:50.771Z,100189.94
2023-01-08T17:42:28.364Z,100203.34
2023-01-08T17:45:00.440Z,100200.75
2023-01-08T17:47:28.649Z,100199.13
2023-01-08T17:49:57.761Z,100200.44
2023-01-08T17:52:27.033Z,100203.22
2023-01-08T17:54:55.207Z,100192.31
2023-01-08T17:57:23.281Z,100202.31
2023-01-08T17:59:51.377Z,100202.75
2023-01-08T18:02:20.821Z,100171.38
2023-01-08T18:04:48.988Z,100204.56
2023-01-08T18:07:17.231Z,100163.69
2023-01-08T18:09:45.876Z,100199.31
2023-01-08T18:12:13.991Z,100192.06
2023-01-08T18:14:42.016Z,100201.22
2023-01-08T18:17:09.996Z,100167.16
2023-01-08T18:19:39.600Z,100205.56
2023-01-08T18:22:07.581Z,100156.63
2023-01-08T18:24:35.789Z,100212.31
2023-01-08T18:27:04.368Z,100192.84
2023-01-08T18:29:32.317Z,100217.69
2023-01-08T18:32:01.780Z,100190.06
2023-01-08T18:34:29.763Z,100202.00
2023-01-08T18:36:59.117Z,100178.06
2023-01-08T18:39:29.547Z,100221.91
2023-01-08T18:42:15.188Z,100212.97
2023-01-08T18:44:43.260Z,100213.31
2023-01-08T18:47:12.579Z,100220.22
2023-01-08T18:49:40.617Z,100213.69
2023-01-08T18:52:11.063Z,100218.53
2023-01-08T18:54:39.119Z,100215.63
2023-01-08T18:57:07.472Z,100221.25
2023-01-08T18:59:35.444Z,100225.44
2023-01-08T19:02:03.596Z,100228.63
2023-01-08T19:04:31.729Z,100221.00
2023-01-08T19:06:59.663Z,100228.09
2023-01-08T19:09:29.196Z,100227.59
2023-01-08T19:11:57.206Z,100222.41
2023-01-08T19:14:25.161Z,100194.59
2023-01-08T19:16:53.152Z,100230.97
2023-01-08T19:19:21.192Z,100238.78
2023-01-08T19:21:49.430Z,100225.34
2023-01-08T19:24:17.546Z,100210.66
2023-01-08T19:26:46.922Z,100238.78
2023-01-08T19:29:14.856Z,100240.53
2023-01-08T19:31:42.920Z,100196.41
2023-01-08T19:34:11.673Z,100248.03
2023-01-08T19:36:39.660Z,100234.28
2023-01-08T19:39:11.049Z,100239.47
2023-01-08T19:41:56.435Z,100214.53
2023-01-08T19:44:26.315Z,100223.75
2023-01-08T19:46:54.556Z,100238.59
2023-01-08T19:49:23.611Z,100239.75
2023-01-08T19:51:52.694Z,100244.78
2023-01-08T19:54:23.718Z,100204.44
2023-01-08T19:56:51.778Z,100237.16
2023-01-08T19:59:19.872Z,100242.97
2023-01-08T20:01:49.386Z,100236.97
2023-01-08T20:04:17.517Z,100239.75
2023-01-08T20:06:45.517Z,100229.66
2023-01-08T20:09:13.453Z,100235.91
2023-01-08T20:11:41.587Z,100220.25
2023-01-08T20:14:09.509Z,100234.31
2023-01-08T20:16:37.611Z,100223.66
2023-01-08T20:19:06.990Z,100238.97
2023-01-08T20:21:35.165Z,100167.28
2023-01-08T20:24:09.580Z,100239.63
2023-01-08T20:26:39.199Z,100225.50
2023-01-08T20:29:08.389Z,100249.06
2023-01-08T20:31:36.510Z,100128.72
2023-01-08T20:34:09.241Z,100249.06
2023-01-08T20:36:37.926Z,100247.19
2023-01-08T20:39:07.563Z,100232.88
2023-01-08T20:41:35.563Z,100249.78
2023-01-08T20:44:06.700Z,100254.28
2023-01-08T20:46:36.863Z,100245.69
2023-01-08T20:49:08.059Z,100149.47
2023-01-08T20:51:39.545Z,100252.22
2023-01-08T20:54:10.040Z,100256.47
2023-01-08T20:56:38.052Z,100268.91
2023-01-08T20:59:06.311Z,100257.84
2023-01-08T21:01:35.748Z,100254.25
2023-01-08T21:04:06.371Z,100255.81
2023-01-08T21:06:35.801Z,100231.75
2023-01-08T21:09:07.714Z,100254.31
2023-01-08T21:11:37.110Z,100246.91
2023-01-08T21:14:05.808Z,100250.16
2023-01-08T21:16:34.907Z,100211.28
2023-01-08T21:19:03.776Z,100246.59
2023-01-08T21:21:33.576Z,100251.59
2023-01-08T21:24:05.142Z,100248.72
2023-01-08T21:26:33.934Z,100227.16
2023-01-08T21:29:03.787Z,100250.81
2023-01-08T21:31:31.847Z,100217.53
2023-01-08T21:34:01.442Z,100244.97
2023-01-08T21:36:31.679Z,100201.44
2023-01-08T21:39:01.161Z,100247.19
2023-01-08T21:41:49.037Z,100246.91
2023-01-08T21:44:36.016Z,100249.38
2023-01-08T21:47:06.001Z,100249.78
2023-01-08T21:49:35.936Z,100225.06
2023-01-08T21:52:21.462Z,100237.50
2023-01-08T21:54:49.505Z,100261.31
2023-01-08T21:57:19.030Z,100261.31
2023-01-08T21:59:50.645Z,100259.13
2023-01-08T22:02:20.683Z,100258.81
2023-01-08T22:04:48.961Z,100255.66
2023-01-08T22:07:17.514Z,100261.00
2023-01-08T22:09:45.590Z,100256.63
2023-01-08T22:12:14.149Z,100256.88
2023-01-08T22:14:43.795Z,100246.69
2023-01-08T22:17:11.962Z,100249.44
2023-01-08T22:19:41.733Z,100254.44
2023-01-08T22:22:11.098Z,100146.25
2023-01-08T22:24:39.504Z,100245.72
2023-01-08T22:27:08.832Z,100255.66
2023-01-08T22:29:39.743Z,100252.00
2023-01-08T22:32:09.113Z,100252.63
2023-01-08T22:34:37.328Z,100257.72
2023-01-08T22:37:05.368Z,100256.25
2023-01-08T22:39:33.319Z,100254.75
2023-01-08T22:42:01.525Z,100249.59
2023-01-08T22:44:29.464Z,100255.94
2023-01-08T22:46:59.137Z,100256.75
2023-01-08T22:49:28.535Z,100236.03
2023-01-08T22:51:56.540Z,100232.50
2023-01-08T22:54:24.571Z,100242.31
2023-01-08T22:56:52.721Z,100246.06
2023-01-08T22:59:21.429Z,100230.03
2023-01-08T23:01:49.546Z,100246.09
2023-01-08T23:04:17.698Z,100238.97
2023-01-08T23:06:47.012Z,100228.25
2023-01-08T23:09:15.274Z,100238.94
2023-01-08T23:11:43.286Z,100233.13
2023-01-08T23:14:14.488Z,100246.69
2023-01-08T23:16:43.001Z,100241.47
2023-01-08T23:19:11.331Z,100242.03
2023-01-08T23:21:39.293Z,100242.25
2023-01-08T23:24:12.939Z,100218.66
2023-01-08T23:26:41.220Z,100237.47
2023-01-08T23:29:09.093Z,100235.41
2023-01-08T23:31:38.567Z,100215.06
2023-01-08T23:34:06.835Z,100231.69
2023-01-08T23:36:34.966Z,100230.19
2023-01-08T23:39:03.415Z,100231.50
2023-01-08T23:41:34.901Z,100228.06
2023-01-08T23:44:05.467Z,100214.06
2023-01-08T23:46:33.826Z,100229.66
2023-01-08T23:49:02.052Z,100231.44
2023-01-08T23:51:30.055Z,100231.63
2023-01-08T23:53:58.187Z,100239.06
2023-01-08T23:56:26.845Z,100239.59
2023-01-08T23:58:56.485Z,100240.66
